sensor_id;sensor_type;location;lat;lon;timestamp;temperature;humidity
7694;DHT22;3889;48.162;11.510;2022-10-16T00:00:57;12.50;99.90
7694;DHT22;3889;48.162;11.510;2022-10-16T00:03:25;12.50;99.90
7694;DHT22;3889;48.162;11.510;2022-10-16T00:05:59;12.60;99.90
7694;DHT22;3889;48.162;11.510;2022-10-16T00:08:28;12.50;99.90
7694;DHT22;3889;48.162;11.510;2022-10-16T00:11:01;12.50;99.90
7694;DHT22;3889;48.162;11.510;2022-10-16T00:13:29;12.50;99.90
7694;DHT22;3889;48.162;11.510;2022-10-16T00:15:58;12.50;99.90
7694;DHT22;3889;48.162;11.510;2022-10-16T00:18:27;12.50;99.90
7694;DHT22;3889;48.162;11.510;2022-10-16T00:20:55;12.50;99.90
7694;DHT22;3889;48.162;11.510;2022-10-16T00:23:23;12.40;99.90
7694;DHT22;3889;48.162;11.510;2022-10-16T00:25:55;12.50;99.90
7694;DHT22;3889;48.162;11.510;2022-10-16T00:28:25;12.40;99.90
7694;DHT22;3889;48.162;11.510;2022-10-16T00:30:53;12.40;99.90
7694;DHT22;3889;48.162;11.510;2022-10-16T00:33:21;12.40;99.90
7694;DHT22;3889;48.162;11.510;2022-10-16T00:35:49;12.40;99.90
7694;DHT22;3889;48.162;11.510;2022-10-16T00:38:17;12.40;99.90
7694;DHT22;3889;48.162;11.510;2022-10-16T00:40:45;12.40;99.90
7694;DHT22;3889;48.162;11.510;2022-10-16T00:43:31;12.40;99.90
7694;DHT22;3889;48.162;11.510;2022-10-16T00:46:02;12.30;99.90
7694;DHT22;3889;48.162;11.510;2022-10-16T00:48:31;12.40;99.90
7694;DHT22;3889;48.162;11.510;2022-10-16T00:50:59;12.40;99.90
7694;DHT22;3889;48.162;11.510;2022-10-16T00:53:27;12.30;99.90
7694;DHT22;3889;48.162;11.510;2022-10-16T00:55:55;12.30;99.90
7694;DHT22;3889;48.162;11.510;2022-10-16T00:58:23;12.40;99.90
7694;DHT22;3889;48.162;11.510;2022-10-16T01:00:51;12.40;99.90
7694;DHT22;3889;48.162;11.510;2022-10-16T01:03:25;12.40;99.90
7694;DHT22;3889;48.162;11.510;2022-10-16T01:06:09;12.40;99.90
7694;DHT22;3889;48.162;11.510;2022-10-16T01:08:47;12.30;99.90
7694;DHT22;3889;48.162;11.510;2022-10-16T01:11:22;12.30;99.90
7694;DHT22;3889;48.162;11.510;2022-10-16T01:13:54;12.30;99.90
7694;DHT22;3889;48.162;11.510;2022-10-16T01:16:29;12.40;99.90
7694;DHT22;3889;48.162;11.510;2022-10-16T01:19:06;12.40;99.90
7694;DHT22;3889;48.162;11.510;2022-10-16T01:21:39;12.40;99.90
7694;DHT22;3889;48.162;11.510;2022-10-16T01:24:14;12.40;99.90
7694;DHT22;3889;48.162;11.510;2022-10-16T01:27:06;12.40;99.90
7694;DHT22;3889;48.162;11.510;2022-10-16T01:29:38;12.40;99.90
7694;DHT22;3889;48.162;11.510;2022-10-16T01:32:11;12.40;99.90
7694;DHT22;3889;48.162;11.510;2022-10-16T01:34:47;12.40;99.90
7694;DHT22;3889;48.162;11.510;2022-10-16T01:37:23;12.40;99.90
7694;DHT22;3889;48.162;11.510;2022-10-16T01:39:55;12.40;99.90
7694;DHT22;3889;48.162;11.510;2022-10-16T01:42:30;12.40;99.90
7694;DHT22;3889;48.162;11.510;2022-10-16T01:45:01;12.50;99.90
7694;DHT22;3889;48.162;11.510;2022-10-16T01:47:31;12.40;99.90
7694;DHT22;3889;48.162;11.510;2022-10-16T01:50:00;12.50;99.90
7694;DHT22;3889;48.162;11.510;2022-10-16T01:52:33;12.40;99.90
7694;DHT22;3889;48.162;11.510;2022-10-16T01:55:05;12.30;99.90
7694;DHT22;3889;48.162;11.510;2022-10-16T01:57:36;12.30;99.90
7694;DHT22;3889;48.162;11.510;2022-10-16T02:00:09;12.30;99.90
7694;DHT22;3889;48.162;11.510;2022-10-16T02:02:40;12.40;99.90
7694;DHT22;3889;48.162;11.510;2022-10-16T02:05:14;12.40;99.90
7694;DHT22;3889;48.162;11.510;2022-10-16T02:07:43;12.40;99.90
7694;DHT22;3889;48.162;11.510;2022-10-16T02:10:11;12.30;99.90
7694;DHT22;3889;48.162;11.510;2022-10-16T02:12:44;12.40;99.90
7694;DHT22;3889;48.162;11.510;2022-10-16T02:15:14;12.30;99.90
7694;DHT22;3889;48.162;11.510;2022-10-16T02:17:42;12.30;99.90
7694;DHT22;3889;48.162;11.510;2022-10-16T02:20:10;12.30;99.90
7694;DHT22;3889;48.162;11.510;2022-10-16T02:22:40;12.30;99.90
7694;DHT22;3889;48.162;11.510;2022-10-16T02:25:11;12.30;99.90
7694;DHT22;3889;48.162;11.510;2022-10-16T02:27:50;12.30;99.90
7694;DHT22;3889;48.162;11.510;2022-10-16T02:30:25;12.30;99.90
7694;DHT22;3889;48.162;11.510;2022-10-16T02:32:53;12.30;99.90
7694;DHT22;3889;48.162;11.510;2022-10-16T02:35:23;12.20;99.90
7694;DHT22;3889;48.162;11.510;2022-10-16T02:37:51;12.20;99.90
7694;DHT22;3889;48.162;11.510;2022-10-16T02:40:20;12.20;99.90
7694;DHT22;3889;48.162;11.510;2022-10-16T02:42:53;12.20;99.90
7694;DHT22;3889;48.162;11.510;2022-10-16T02:45:22;12.20;99.90
7694;DHT22;3889;48.162;11.510;2022-10-16T02:47:50;12.20;99.90
7694;DHT22;3889;48.162;11.510;2022-10-16T02:50:18;12.20;99.90
7694;DHT22;3889;48.162;11.510;2022-10-16T02:52:46;12.10;99.90
7694;DHT22;3889;48.162;11.510;2022-10-16T02:55:14;12.10;99.90
7694;DHT22;3889;48.162;11.510;2022-10-16T02:57:42;12.10;99.90
7694;DHT22;3889;48.162;11.510;2022-10-16T03:00:14;12.10;99.90
7694;DHT22;3889;48.162;11.510;2022-10-16T03:02:42;12.10;99.90
7694;DHT22;3889;48.162;11.510;2022-10-16T03:05:10;12.10;99.90
7694;DHT22;3889;48.162;11.510;2022-10-16T03:07:38;12.00;99.90
7694;DHT22;3889;48.162;11.510;2022-10-16T03:10:07;12.00;99.90
7694;DHT22;3889;48.162;11.510;2022-10-16T03:12:35;12.10;99.90
7694;DHT22;3889;48.162;11.510;2022-10-16T03:15:04;12.10;99.90
7694;DHT22;3889;48.162;11.510;2022-10-16T03:17:34;12.00;99.90
7694;DHT22;3889;48.162;11.510;2022-10-16T03:20:03;12.10;99.90
7694;DHT22;3889;48.162;11.510;2022-10-16T03:22:31;12.10;99.90
7694;DHT22;3889;48.162;11.510;2022-10-16T03:24:59;12.10;99.90
7694;DHT22;3889;48.162;11.510;2022-10-16T03:27:26;12.00;99.90
7694;DHT22;3889;48.162;11.510;2022-10-16T03:29:55;12.10;99.90
7694;DHT22;3889;48.162;11.510;2022-10-16T03:32:22;12.10;99.90
7694;DHT22;3889;48.162;11.510;2022-10-16T03:34:53;12.20;99.90
7694;DHT22;3889;48.162;11.510;2022-10-16T03:37:22;12.20;99.90
7694;DHT22;3889;48.162;11.510;2022-10-16T03:39:51;12.20;99.90
7694;DHT22;3889;48.162;11.510;2022-10-16T03:42:19;12.30;99.90
7694;DHT22;3889;48.162;11.510;2022-10-16T03:44:46;12.30;99.90
7694;DHT22;3889;48.162;11.510;2022-10-16T03:47:14;12.30;99.90
7694;DHT22;3889;48.162;11.510;2022-10-16T03:49:47;12.30;99.90
7694;DHT22;3889;48.162;11.510;2022-10-16T03:52:16;12.40;99.90
7694;DHT22;3889;48.162;11.510;2022-10-16T03:54:49;12.50;99.90
7694;DHT22;3889;48.162;11.510;2022-10-16T03:57:17;12.60;99.90
7694;DHT22;3889;48.162;11.510;2022-10-16T03:59:44;12.60;99.90
7694;DHT22;3889;48.162;11.510;2022-10-16T04:02:12;12.70;99.90
7694;DHT22;3889;48.162;11.510;2022-10-16T04:04:40;12.70;99.90
7694;DHT22;3889;48.162;11.510;2022-10-16T04:07:08;12.70;99.90
7694;DHT22;3889;48.162;11.510;2022-10-16T04:09:37;12.80;99.90
7694;DHT22;3889;48.162;11.510;2022-10-16T04:12:05;12.80;99.90
7694;DHT22;3889;48.162;11.510;2022-10-16T04:14:33;12.80;99.90
7694;DHT22;3889;48.162;11.510;2022-10-16T04:17:01;12.80;99.90
7694;DHT22;3889;48.162;11.510;2022-10-16T04:19:29;12.80;99.90
7694;DHT22;3889;48.162;11.510;2022-10-16T04:21:56;12.80;99.90
7694;DHT22;3889;48.162;11.510;2022-10-16T04:24:24;12.80;99.90
7694;DHT22;3889;48.162;11.510;2022-10-16T04:26:53;12.80;99.90
7694;DHT22;3889;48.162;11.510;2022-10-16T04:29:21;12.80;99.90
7694;DHT22;3889;48.162;11.510;2022-10-16T04:31:49;12.90;99.90
7694;DHT22;3889;48.162;11.510;2022-10-16T04:34:17;12.90;99.90
7694;DHT22;3889;48.162;11.510;2022-10-16T04:36:46;12.80;99.90
7694;DHT22;3889;48.162;11.510;2022-10-16T04:39:14;12.80;99.90
7694;DHT22;3889;48.162;11.510;2022-10-16T04:41:42;12.80;99.90
7694;DHT22;3889;48.162;11.510;2022-10-16T04:44:12;12.90;99.90
7694;DHT22;3889;48.162;11.510;2022-10-16T04:46:39;12.80;99.90
7694;DHT22;3889;48.162;11.510;2022-10-16T04:49:07;12.80;99.90
7694;DHT22;3889;48.162;11.510;2022-10-16T04:51:35;12.80;99.90
7694;DHT22;3889;48.162;11.510;2022-10-16T04:54:03;12.90;99.90
7694;DHT22;3889;48.162;11.510;2022-10-16T04:56:31;12.90;99.90
7694;DHT22;3889;48.162;11.510;2022-10-16T04:58:59;13.00;99.90
7694;DHT22;3889;48.162;11.510;2022-10-16T05:01:28;13.00;99.90
7694;DHT22;3889;48.162;11.510;2022-10-16T05:03:55;12.90;99.90
7694;DHT22;3889;48.162;11.510;2022-10-16T05:06:23;12.90;99.90
7694;DHT22;3889;48.162;11.510;2022-10-16T05:08:51;12.90;99.90
7694;DHT22;3889;48.162;11.510;2022-10-16T05:11:19;12.90;99.90
7694;DHT22;3889;48.162;11.510;2022-10-16T05:13:47;12.90;99.90
7694;DHT22;3889;48.162;11.510;2022-10-16T05:16:19;13.00;99.90
7694;DHT22;3889;48.162;11.510;2022-10-16T05:18:48;13.00;99.90
7694;DHT22;3889;48.162;11.510;2022-10-16T05:21:21;13.00;99.90
7694;DHT22;3889;48.162;11.510;2022-10-16T05:23:49;13.00;99.90
7694;DHT22;3889;48.162;11.510;2022-10-16T05:26:17;13.00;99.90
7694;DHT22;3889;48.162;11.510;2022-10-16T05:28:45;12.90;99.90
7694;DHT22;3889;48.162;11.510;2022-10-16T05:31:13;12.90;99.90
7694;DHT22;3889;48.162;11.510;2022-10-16T05:33:41;13.00;99.90
7694;DHT22;3889;48.162;11.510;2022-10-16T05:36:11;12.90;99.90
7694;DHT22;3889;48.162;11.510;2022-10-16T05:38:39;12.90;99.90
7694;DHT22;3889;48.162;11.510;2022-10-16T05:41:07;12.90;99.90
7694;DHT22;3889;48.162;11.510;2022-10-16T05:43:35;12.90;99.90
7694;DHT22;3889;48.162;11.510;2022-10-16T05:46:04;12.90;99.90
7694;DHT22;3889;48.162;11.510;2022-10-16T05:48:33;12.90;99.90
7694;DHT22;3889;48.162;11.510;2022-10-16T05:51:02;12.80;99.90
7694;DHT22;3889;48.162;11.510;2022-10-16T05:53:33;12.90;99.90
7694;DHT22;3889;48.162;11.510;2022-10-16T05:56:02;12.80;99.90
7694;DHT22;3889;48.162;11.510;2022-10-16T05:58:32;12.80;99.90
7694;DHT22;3889;48.162;11.510;2022-10-16T06:01:02;12.80;99.90
7694;DHT22;3889;48.162;11.510;2022-10-16T06:03:30;12.80;99.90
7694;DHT22;3889;48.162;11.510;2022-10-16T06:05:58;12.80;99.90
7694;DHT22;3889;48.162;11.510;2022-10-16T06:08:26;12.70;99.90
7694;DHT22;3889;48.162;11.510;2022-10-16T06:11:02;12.70;99.90
7694;DHT22;3889;48.162;11.510;2022-10-16T06:13:30;12.70;99.90
7694;DHT22;3889;48.162;11.510;2022-10-16T06:15:59;12.70;99.90
7694;DHT22;3889;48.162;11.510;2022-10-16T06:18:27;12.60;99.90
7694;DHT22;3889;48.162;11.510;2022-10-16T06:20:56;12.60;99.90
7694;DHT22;3889;48.162;11.510;2022-10-16T06:23:25;12.60;99.90
7694;DHT22;3889;48.162;11.510;2022-10-16T06:25:52;12.60;99.90
7694;DHT22;3889;48.162;11.510;2022-10-16T06:28:22;12.60;99.90
7694;DHT22;3889;48.162;11.510;2022-10-16T06:30:58;12.60;99.90
7694;DHT22;3889;48.162;11.510;2022-10-16T06:33:33;12.60;99.90
7694;DHT22;3889;48.162;11.510;2022-10-16T06:36:01;12.60;99.90
7694;DHT22;3889;48.162;11.510;2022-10-16T06:38:29;12.60;99.90
7694;DHT22;3889;48.162;11.510;2022-10-16T06:40:58;12.60;99.90
7694;DHT22;3889;48.162;11.510;2022-10-16T06:43:28;12.60;99.90
7694;DHT22;3889;48.162;11.510;2022-10-16T06:45:59;12.70;99.90
7694;DHT22;3889;48.162;11.510;2022-10-16T06:48:28;12.60;99.90
7694;DHT22;3889;48.162;11.510;2022-10-16T06:50:58;12.60;99.90
7694;DHT22;3889;48.162;11.510;2022-10-16T06:53:28;12.60;99.90
7694;DHT22;3889;48.162;11.510;2022-10-16T06:56:16;12.60;99.90
7694;DHT22;3889;48.162;11.510;2022-10-16T06:58:45;12.60;99.90
7694;DHT22;3889;48.162;11.510;2022-10-16T07:01:15;12.60;99.90
7694;DHT22;3889;48.162;11.510;2022-10-16T07:03:44;12.60;99.90
7694;DHT22;3889;48.162;11.510;2022-10-16T07:06:14;12.60;99.90
7694;DHT22;3889;48.162;11.510;2022-10-16T07:08:44;12.60;99.90
7694;DHT22;3889;48.162;11.510;2022-10-16T07:11:14;12.70;99.90
7694;DHT22;3889;48.162;11.510;2022-10-16T07:13:45;12.70;99.90
7694;DHT22;3889;48.162;11.510;2022-10-16T07:16:22;12.80;99.90
7694;DHT22;3889;48.162;11.510;2022-10-16T07:18:50;12.80;99.90
7694;DHT22;3889;48.162;11.510;2022-10-16T07:21:25;12.80;99.90
7694;DHT22;3889;48.162;11.510;2022-10-16T07:23:56;12.80;99.90
7694;DHT22;3889;48.162;11.510;2022-10-16T07:26:26;12.90;99.90
7694;DHT22;3889;48.162;11.510;2022-10-16T07:28:55;12.80;99.90
7694;DHT22;3889;48.162;11.510;2022-10-16T07:31:24;12.90;99.90
7694;DHT22;3889;48.162;11.510;2022-10-16T07:33:53;13.00;99.90
7694;DHT22;3889;48.162;11.510;2022-10-16T07:36:21;13.00;99.90
7694;DHT22;3889;48.162;11.510;2022-10-16T07:38:49;13.10;99.90
7694;DHT22;3889;48.162;11.510;2022-10-16T07:41:22;13.10;99.90
7694;DHT22;3889;48.162;11.510;2022-10-16T07:43:52;13.10;99.90
7694;DHT22;3889;48.162;11.510;2022-10-16T07:46:22;13.20;99.90
7694;DHT22;3889;48.162;11.510;2022-10-16T07:48:51;13.20;99.90
7694;DHT22;3889;48.162;11.510;2022-10-16T07:51:22;13.20;99.90
7694;DHT22;3889;48.162;11.510;2022-10-16T07:53:50;13.40;99.90
7694;DHT22;3889;48.162;11.510;2022-10-16T07:56:19;13.40;99.90
7694;DHT22;3889;48.162;11.510;2022-10-16T07:58:47;13.50;99.90
7694;DHT22;3889;48.162;11.510;2022-10-16T08:01:17;13.60;99.90
7694;DHT22;3889;48.162;11.510;2022-10-16T08:03:48;13.80;99.90
7694;DHT22;3889;48.162;11.510;2022-10-16T08:06:17;13.90;99.90
7694;DHT22;3889;48.162;11.510;2022-10-16T08:08:50;14.10;99.90
7694;DHT22;3889;48.162;11.510;2022-10-16T08:11:19;14.20;99.90
7694;DHT22;3889;48.162;11.510;2022-10-16T08:13:46;14.40;99.90
7694;DHT22;3889;48.162;11.510;2022-10-16T08:16:17;14.60;99.90
7694;DHT22;3889;48.162;11.510;2022-10-16T08:18:48;14.70;99.90
7694;DHT22;3889;48.162;11.510;2022-10-16T08:21:19;15.00;99.90
7694;DHT22;3889;48.162;11.510;2022-10-16T08:23:49;15.10;99.90
7694;DHT22;3889;48.162;11.510;2022-10-16T08:26:25;15.30;99.90
7694;DHT22;3889;48.162;11.510;2022-10-16T08:28:54;15.50;99.90
7694;DHT22;3889;48.162;11.510;2022-10-16T08:31:25;15.60;99.90
7694;DHT22;3889;48.162;11.510;2022-10-16T08:33:58;15.80;99.90
7694;DHT22;3889;48.162;11.510;2022-10-16T08:36:26;15.90;99.90
7694;DHT22;3889;48.162;11.510;2022-10-16T08:38:56;16.00;99.90
7694;DHT22;3889;48.162;11.510;2022-10-16T08:41:41;16.20;99.90
7694;DHT22;3889;48.162;11.510;2022-10-16T08:47:18;16.50;99.90
7694;DHT22;3889;48.162;11.510;2022-10-16T08:49:56;16.70;99.90
7694;DHT22;3889;48.162;11.510;2022-10-16T08:52:28;16.90;99.90
7694;DHT22;3889;48.162;11.510;2022-10-16T08:54:57;16.90;99.90
7694;DHT22;3889;48.162;11.510;2022-10-16T08:57:25;17.10;99.90
7694;DHT22;3889;48.162;11.510;2022-10-16T08:59:54;17.20;99.90
7694;DHT22;3889;48.162;11.510;2022-10-16T09:02:31;17.30;99.90
7694;DHT22;3889;48.162;11.510;2022-10-16T09:05:20;17.40;99.90
7694;DHT22;3889;48.162;11.510;2022-10-16T09:07:56;17.60;99.90
7694;DHT22;3889;48.162;11.510;2022-10-16T09:10:41;17.70;99.90
7694;DHT22;3889;48.162;11.510;2022-10-16T09:13:18;17.70;99.90
7694;DHT22;3889;48.162;11.510;2022-10-16T09:15:53;17.90;99.90
7694;DHT22;3889;48.162;11.510;2022-10-16T09:18:26;17.90;99.90
7694;DHT22;3889;48.162;11.510;2022-10-16T09:21:07;18.00;99.90
7694;DHT22;3889;48.162;11.510;2022-10-16T09:23:38;18.10;99.90
7694;DHT22;3889;48.162;11.510;2022-10-16T09:26:10;18.20;99.90
7694;DHT22;3889;48.162;11.510;2022-10-16T09:28:39;18.30;99.90
7694;DHT22;3889;48.162;11.510;2022-10-16T09:31:13;18.40;99.90
7694;DHT22;3889;48.162;11.510;2022-10-16T09:33:43;18.50;99.90
7694;DHT22;3889;48.162;11.510;2022-10-16T09:36:14;18.60;99.90
7694;DHT22;3889;48.162;11.510;2022-10-16T09:38:46;18.90;99.90
7694;DHT22;3889;48.162;11.510;2022-10-16T09:41:19;18.90;99.90
7694;DHT22;3889;48.162;11.510;2022-10-16T09:43:52;19.00;99.90
7694;DHT22;3889;48.162;11.510;2022-10-16T09:46:28;19.10;99.90
7694;DHT22;3889;48.162;11.510;2022-10-16T09:48:58;19.20;99.90
7694;DHT22;3889;48.162;11.510;2022-10-16T09:51:29;19.20;99.90
7694;DHT22;3889;48.162;11.510;2022-10-16T09:54:00;19.30;99.90
7694;DHT22;3889;48.162;11.510;2022-10-16T09:56:31;19.30;99.90
7694;DHT22;3889;48.162;11.510;2022-10-16T09:59:11;19.40;99.90
7694;DHT22;3889;48.162;11.510;2022-10-16T10:01:45;19.60;99.90
7694;DHT22;3889;48.162;11.510;2022-10-16T10:04:14;19.60;99.90
7694;DHT22;3889;48.162;11.510;2022-10-16T10:06:52;19.80;99.90
7694;DHT22;3889;48.162;11.510;2022-10-16T10:09:37;19.80;99.90
7694;DHT22;3889;48.162;11.510;2022-10-16T10:12:18;19.90;99.90
7694;DHT22;3889;48.162;11.510;2022-10-16T10:14:56;20.00;99.90
7694;DHT22;3889;48.162;11.510;2022-10-16T10:17:26;20.00;99.90
7694;DHT22;3889;48.162;11.510;2022-10-16T10:19:59;20.00;99.90
7694;DHT22;3889;48.162;11.510;2022-10-16T10:22:42;20.10;99.90
7694;DHT22;3889;48.162;11.510;2022-10-16T10:25:20;20.20;99.90
7694;DHT22;3889;48.162;11.510;2022-10-16T10:31:06;20.20;99.90
7694;DHT22;3889;48.162;11.510;2022-10-16T10:33:43;20.20;99.90
7694;DHT22;3889;48.162;11.510;2022-10-16T10:36:28;20.30;99.90
7694;DHT22;3889;48.162;11.510;2022-10-16T10:39:00;20.40;99.90
7694;DHT22;3889;48.162;11.510;2022-10-16T10:41:53;20.40;99.90
7694;DHT22;3889;48.162;11.510;2022-10-16T10:44:34;20.40;99.90
7694;DHT22;3889;48.162;11.510;2022-10-16T10:47:13;20.50;99.90
7694;DHT22;3889;48.162;11.510;2022-10-16T10:49:53;20.50;99.90
7694;DHT22;3889;48.162;11.510;2022-10-16T10:52:36;20.50;99.90
7694;DHT22;3889;48.162;11.510;2022-10-16T10:55:17;20.50;99.90
7694;DHT22;3889;48.162;11.510;2022-10-16T11:00:53;20.60;99.90
7694;DHT22;3889;48.162;11.510;2022-10-16T11:03:35;20.60;99.90
7694;DHT22;3889;48.162;11.510;2022-10-16T11:06:13;20.60;99.90
7694;DHT22;3889;48.162;11.510;2022-10-16T11:08:48;20.70;99.90
7694;DHT22;3889;48.162;11.510;2022-10-16T11:11:22;20.70;99.90
7694;DHT22;3889;48.162;11.510;2022-10-16T11:13:57;20.60;99.90
7694;DHT22;3889;48.162;11.510;2022-10-16T11:16:29;20.60;99.90
7694;DHT22;3889;48.162;11.510;2022-10-16T11:19:03;20.60;99.90
7694;DHT22;3889;48.162;11.510;2022-10-16T11:21:37;20.70;99.90
7694;DHT22;3889;48.162;11.510;2022-10-16T11:24:16;20.60;99.90
7694;DHT22;3889;48.162;11.510;2022-10-16T11:26:48;20.50;99.90
7694;DHT22;3889;48.162;11.510;2022-10-16T11:29:20;20.50;99.90
7694;DHT22;3889;48.162;11.510;2022-10-16T11:31:53;20.60;99.90
7694;DHT22;3889;48.162;11.510;2022-10-16T11:34:26;20.60;99.90
7694;DHT22;3889;48.162;11.510;2022-10-16T11:37:05;20.60;99.90
7694;DHT22;3889;48.162;11.510;2022-10-16T11:39:38;20.60;99.90
7694;DHT22;3889;48.162;11.510;2022-10-16T11:42:10;20.60;99.90
7694;DHT22;3889;48.162;11.510;2022-10-16T11:44:51;20.60;99.90
7694;DHT22;3889;48.162;11.510;2022-10-16T11:47:27;20.60;99.90
7694;DHT22;3889;48.162;11.510;2022-10-16T11:50:26;20.60;99.90
7694;DHT22;3889;48.162;11.510;2022-10-16T11:53:01;20.70;99.90
7694;DHT22;3889;48.162;11.510;2022-10-16T11:55:34;20.90;99.90
7694;DHT22;3889;48.162;11.510;2022-10-16T11:58:17;20.90;99.90
7694;DHT22;3889;48.162;11.510;2022-10-16T12:00:55;21.10;99.90
7694;DHT22;3889;48.162;11.510;2022-10-16T12:03:29;21.20;99.90
7694;DHT22;3889;48.162;11.510;2022-10-16T12:06:06;21.20;99.90
7694;DHT22;3889;48.162;11.510;2022-10-16T12:08:39;21.10;99.90
7694;DHT22;3889;48.162;11.510;2022-10-16T12:11:09;21.10;99.90
7694;DHT22;3889;48.162;11.510;2022-10-16T12:13:40;21.20;99.90
7694;DHT22;3889;48.162;11.510;2022-10-16T12:16:22;21.10;99.90
7694;DHT22;3889;48.162;11.510;2022-10-16T12:19:03;21.10;99.90
7694;DHT22;3889;48.162;11.510;2022-10-16T12:21:36;21.10;99.90
7694;DHT22;3889;48.162;11.510;2022-10-16T12:24:05;21.10;99.90
7694;DHT22;3889;48.162;11.510;2022-10-16T12:26:36;21.40;99.90
7694;DHT22;3889;48.162;11.510;2022-10-16T12:29:23;21.50;99.90
7694;DHT22;3889;48.162;11.510;2022-10-16T12:31:55;21.60;99.90
7694;DHT22;3889;48.162;11.510;2022-10-16T12:34:28;21.50;99.90
7694;DHT22;3889;48.162;11.510;2022-10-16T12:37:09;21.40;99.90
7694;DHT22;3889;48.162;11.510;2022-10-16T12:39:37;21.40;99.90
7694;DHT22;3889;48.162;11.510;2022-10-16T12:42:20;21.40;99.90
7694;DHT22;3889;48.162;11.510;2022-10-16T12:44:50;21.30;99.90
7694;DHT22;3889;48.162;11.510;2022-10-16T12:47:23;21.30;99.90
7694;DHT22;3889;48.162;11.510;2022-10-16T12:49:52;21.40;99.90
7694;DHT22;3889;48.162;11.510;2022-10-16T12:52:26;21.50;99.90
7694;DHT22;3889;48.162;11.510;2022-10-16T12:54:57;21.50;99.90
7694;DHT22;3889;48.162;11.510;2022-10-16T12:57:36;21.50;99.90
7694;DHT22;3889;48.162;11.510;2022-10-16T13:00:17;21.50;99.90
7694;DHT22;3889;48.162;11.510;2022-10-16T13:03:04;21.70;99.90
7694;DHT22;3889;48.162;11.510;2022-10-16T13:05:49;21.70;99.90
7694;DHT22;3889;48.162;11.510;2022-10-16T13:08:33;21.70;99.90
7694;DHT22;3889;48.162;11.510;2022-10-16T13:11:08;21.70;99.90
7694;DHT22;3889;48.162;11.510;2022-10-16T13:13:58;21.70;99.90
7694;DHT22;3889;48.162;11.510;2022-10-16T13:16:40;21.70;99.90
7694;DHT22;3889;48.162;11.510;2022-10-16T13:19:22;21.70;99.90
7694;DHT22;3889;48.162;11.510;2022-10-16T13:21:59;21.80;99.90
7694;DHT22;3889;48.162;11.510;2022-10-16T13:24:42;21.80;99.90
7694;DHT22;3889;48.162;11.510;2022-10-16T13:27:21;21.70;99.90
7694;DHT22;3889;48.162;11.510;2022-10-16T13:30:00;21.60;99.90
7694;DHT22;3889;48.162;11.510;2022-10-16T13:32:30;21.60;99.90
7694;DHT22;3889;48.162;11.510;2022-10-16T13:34:58;21.60;99.90
7694;DHT22;3889;48.162;11.510;2022-10-16T13:37:28;21.70;99.90
7694;DHT22;3889;48.162;11.510;2022-10-16T13:40:06;21.70;99.90
7694;DHT22;3889;48.162;11.510;2022-10-16T13:42:35;21.80;99.90
7694;DHT22;3889;48.162;11.510;2022-10-16T13:45:03;21.80;99.90
7694;DHT22;3889;48.162;11.510;2022-10-16T13:47:33;21.70;99.90
7694;DHT22;3889;48.162;11.510;2022-10-16T13:50:04;21.60;99.90
7694;DHT22;3889;48.162;11.510;2022-10-16T13:52:32;21.50;99.90
7694;DHT22;3889;48.162;11.510;2022-10-16T13:55:00;21.50;99.90
7694;DHT22;3889;48.162;11.510;2022-10-16T13:57:28;21.40;99.90
7694;DHT22;3889;48.162;11.510;2022-10-16T13:59:56;21.40;99.90
7694;DHT22;3889;48.162;11.510;2022-10-16T14:02:26;21.40;99.90
7694;DHT22;3889;48.162;11.510;2022-10-16T14:04:57;21.50;99.90
7694;DHT22;3889;48.162;11.510;2022-10-16T14:07:28;21.40;99.90
7694;DHT22;3889;48.162;11.510;2022-10-16T14:10:00;21.50;99.90
7694;DHT22;3889;48.162;11.510;2022-10-16T14:12:28;21.50;99.90
7694;DHT22;3889;48.162;11.510;2022-10-16T14:14:58;21.40;99.90
7694;DHT22;3889;48.162;11.510;2022-10-16T14:17:30;21.40;99.90
7694;DHT22;3889;48.162;11.510;2022-10-16T14:20:00;21.40;99.90
7694;DHT22;3889;48.162;11.510;2022-10-16T14:22:34;21.40;99.90
7694;DHT22;3889;48.162;11.510;2022-10-16T14:25:23;21.60;99.90
7694;DHT22;3889;48.162;11.510;2022-10-16T14:28:01;21.70;99.90
7694;DHT22;3889;48.162;11.510;2022-10-16T14:30:30;21.70;99.90
7694;DHT22;3889;48.162;11.510;2022-10-16T14:33:02;21.80;99.90
7694;DHT22;3889;48.162;11.510;2022-10-16T14:35:33;21.70;99.90
7694;DHT22;3889;48.162;11.510;2022-10-16T14:38:03;21.60;99.90
7694;DHT22;3889;48.162;11.510;2022-10-16T14:40:33;21.40;99.90
7694;DHT22;3889;48.162;11.510;2022-10-16T14:43:03;21.20;99.90
7694;DHT22;3889;48.162;11.510;2022-10-16T14:45:34;21.20;99.90
7694;DHT22;3889;48.162;11.510;2022-10-16T14:48:05;21.00;99.90
7694;DHT22;3889;48.162;11.510;2022-10-16T14:50:47;21.10;99.90
7694;DHT22;3889;48.162;11.510;2022-10-16T14:53:15;21.00;99.90
7694;DHT22;3889;48.162;11.510;2022-10-16T14:55:43;20.90;99.90
7694;DHT22;3889;48.162;11.510;2022-10-16T14:58:15;20.80;99.90
7694;DHT22;3889;48.162;11.510;2022-10-16T15:00:44;20.70;99.90
7694;DHT22;3889;48.162;11.510;2022-10-16T15:03:13;20.60;99.90
7694;DHT22;3889;48.162;11.510;2022-10-16T15:05:41;20.40;99.90
7694;DHT22;3889;48.162;11.510;2022-10-16T15:08:10;20.30;99.90
7694;DHT22;3889;48.162;11.510;2022-10-16T15:10:41;20.20;99.90
7694;DHT22;3889;48.162;11.510;2022-10-16T15:13:12;20.10;99.90
7694;DHT22;3889;48.162;11.510;2022-10-16T15:15:43;20.10;99.90
7694;DHT22;3889;48.162;11.510;2022-10-16T15:18:11;20.00;99.90
7694;DHT22;3889;48.162;11.510;2022-10-16T15:20:41;19.90;99.90
7694;DHT22;3889;48.162;11.510;2022-10-16T15:23:14;19.70;99.90
7694;DHT22;3889;48.162;11.510;2022-10-16T15:25:45;19.70;99.90
7694;DHT22;3889;48.162;11.510;2022-10-16T15:28:14;19.60;99.90
7694;DHT22;3889;48.162;11.510;2022-10-16T15:30:42;19.60;99.90
7694;DHT22;3889;48.162;11.510;2022-10-16T15:33:13;19.60;99.90
7694;DHT22;3889;48.162;11.510;2022-10-16T15:35:41;19.70;99.90
7694;DHT22;3889;48.162;11.510;2022-10-16T15:38:12;19.80;99.90
7694;DHT22;3889;48.162;11.510;2022-10-16T15:40:41;19.80;99.90
7694;DHT22;3889;48.162;11.510;2022-10-16T15:43:08;19.70;99.90
7694;DHT22;3889;48.162;11.510;2022-10-16T15:45:37;19.70;99.90
7694;DHT22;3889;48.162;11.510;2022-10-16T15:48:05;19.60;99.90
7694;DHT22;3889;48.162;11.510;2022-10-16T15:50:33;19.40;99.90
7694;DHT22;3889;48.162;11.510;2022-10-16T15:53:01;19.30;99.90
7694;DHT22;3889;48.162;11.510;2022-10-16T15:55:30;19.30;99.90
7694;DHT22;3889;48.162;11.510;2022-10-16T15:57:58;19.20;99.90
7694;DHT22;3889;48.162;11.510;2022-10-16T16:00:26;19.10;99.90
7694;DHT22;3889;48.162;11.510;2022-10-16T16:02:54;19.00;99.90
7694;DHT22;3889;48.162;11.510;2022-10-16T16:05:22;18.90;99.90
7694;DHT22;3889;48.162;11.510;2022-10-16T16:07:50;18.70;99.90
7694;DHT22;3889;48.162;11.510;2022-10-16T16:10:19;18.60;99.90
7694;DHT22;3889;48.162;11.510;2022-10-16T16:12:49;18.40;99.90
7694;DHT22;3889;48.162;11.510;2022-10-16T16:15:19;18.30;99.90
7694;DHT22;3889;48.162;11.510;2022-10-16T16:17:47;18.20;99.90
7694;DHT22;3889;48.162;11.510;2022-10-16T16:20:15;18.10;99.90
7694;DHT22;3889;48.162;11.510;2022-10-16T16:22:43;17.90;99.90